sensor_id;sensor_type;location;lat;lon;timestamp;temperature;humidity
18147;DHT22;9199;48.832;9.182;2023-08-06T00:00:13;15.80;99.90
18147;DHT22;9199;48.832;9.182;2023-08-06T00:02:40;15.70;99.90
18147;DHT22;9199;48.832;9.182;2023-08-06T00:05:07;15.80;99.90
18147;DHT22;9199;48.832;9.182;2023-08-06T00:07:34;15.70;99.90
18147;DHT22;9199;48.832;9.182;2023-08-06T00:10:00;15.80;99.90
18147;DHT22;9199;48.832;9.182;2023-08-06T00:12:28;15.70;99.90
18147;DHT22;9199;48.832;9.182;2023-08-06T00:14:55;15.70;99.90
18147;DHT22;9199;48.832;9.182;2023-08-06T00:17:22;15.70;99.90
18147;DHT22;9199;48.832;9.182;2023-08-06T00:19:49;15.70;99.90
18147;DHT22;9199;48.832;9.182;2023-08-06T00:22:15;15.70;99.90
18147;DHT22;9199;48.832;9.182;2023-08-06T00:24:42;15.60;99.90
18147;DHT22;9199;48.832;9.182;2023-08-06T00:27:09;15.60;99.90
18147;DHT22;9199;48.832;9.182;2023-08-06T00:29:37;15.60;99.90
18147;DHT22;9199;48.832;9.182;2023-08-06T00:32:03;15.50;99.90
18147;DHT22;9199;48.832;9.182;2023-08-06T00:34:30;15.40;99.90
18147;DHT22;9199;48.832;9.182;2023-08-06T00:36:57;15.40;99.90
18147;DHT22;9199;48.832;9.182;2023-08-06T00:39:23;15.40;99.90
18147;DHT22;9199;48.832;9.182;2023-08-06T00:41:50;15.30;99.90
18147;DHT22;9199;48.832;9.182;2023-08-06T00:44:17;15.30;99.90
18147;DHT22;9199;48.832;9.182;2023-08-06T00:46:45;15.30;99.90
18147;DHT22;9199;48.832;9.182;2023-08-06T00:49:12;15.20;99.90
18147;DHT22;9199;48.832;9.182;2023-08-06T00:51:39;15.20;99.90
18147;DHT22;9199;48.832;9.182;2023-08-06T00:54:05;15.10;99.90
18147;DHT22;9199;48.832;9.182;2023-08-06T00:56:34;15.00;99.90
18147;DHT22;9199;48.832;9.182;2023-08-06T00:59:02;15.00;99.90
18147;DHT22;9199;48.832;9.182;2023-08-06T01:01:29;14.90;99.90
18147;DHT22;9199;48.832;9.182;2023-08-06T01:03:57;14.90;99.90
18147;DHT22;9199;48.832;9.182;2023-08-06T01:06:33;14.90;99.90
18147;DHT22;9199;48.832;9.182;2023-08-06T01:09:10;14.90;99.90
18147;DHT22;9199;48.832;9.182;2023-08-06T01:11:44;14.80;99.90
18147;DHT22;9199;48.832;9.182;2023-08-06T01:14:20;14.80;99.90
18147;DHT22;9199;48.832;9.182;2023-08-06T01:16:48;14.70;99.90
18147;DHT22;9199;48.832;9.182;2023-08-06T01:19:18;14.70;99.90
18147;DHT22;9199;48.832;9.182;2023-08-06T01:21:46;14.70;99.90
18147;DHT22;9199;48.832;9.182;2023-08-06T01:24:13;14.70;99.90
18147;DHT22;9199;48.832;9.182;2023-08-06T01:26:45;14.70;99.90
18147;DHT22;9199;48.832;9.182;2023-08-06T01:29:18;14.70;99.90
18147;DHT22;9199;48.832;9.182;2023-08-06T01:31:48;14.70;99.90
18147;DHT22;9199;48.832;9.182;2023-08-06T01:34:19;14.70;99.90
18147;DHT22;9199;48.832;9.182;2023-08-06T01:36:48;14.70;99.90
18147;DHT22;9199;48.832;9.182;2023-08-06T01:39:16;14.80;99.90
18147;DHT22;9199;48.832;9.182;2023-08-06T01:41:46;14.80;99.90
18147;DHT22;9199;48.832;9.182;2023-08-06T01:44:13;14.80;99.90
18147;DHT22;9199;48.832;9.182;2023-08-06T01:46:39;14.70;99.90
18147;DHT22;9199;48.832;9.182;2023-08-06T01:49:06;14.80;99.90
18147;DHT22;9199;48.832;9.182;2023-08-06T01:51:33;14.80;99.90
18147;DHT22;9199;48.832;9.182;2023-08-06T01:54:01;14.80;99.90
18147;DHT22;9199;48.832;9.182;2023-08-06T01:56:27;14.70;99.90
18147;DHT22;9199;48.832;9.182;2023-08-06T01:58:54;14.70;99.90
18147;DHT22;9199;48.832;9.182;2023-08-06T02:01:21;14.70;99.90
18147;DHT22;9199;48.832;9.182;2023-08-06T02:03:47;14.60;99.90
18147;DHT22;9199;48.832;9.182;2023-08-06T02:06:14;14.60;99.90
18147;DHT22;9199;48.832;9.182;2023-08-06T02:08:41;14.60;99.90
18147;DHT22;9199;48.832;9.182;2023-08-06T02:11:09;14.50;99.90
18147;DHT22;9199;48.832;9.182;2023-08-06T02:13:36;14.50;99.90
18147;DHT22;9199;48.832;9.182;2023-08-06T02:16:03;14.40;99.90
18147;DHT22;9199;48.832;9.182;2023-08-06T02:18:29;14.40;99.90
18147;DHT22;9199;48.832;9.182;2023-08-06T02:20:57;14.30;99.90
18147;DHT22;9199;48.832;9.182;2023-08-06T02:23:24;14.30;99.90
18147;DHT22;9199;48.832;9.182;2023-08-06T02:25:57;14.20;99.90
18147;DHT22;9199;48.832;9.182;2023-08-06T02:28:25;14.20;99.90
18147;DHT22;9199;48.832;9.182;2023-08-06T02:30:52;14.20;99.90
18147;DHT22;9199;48.832;9.182;2023-08-06T02:33:19;14.10;99.90
18147;DHT22;9199;48.832;9.182;2023-08-06T02:35:45;14.10;99.90
18147;DHT22;9199;48.832;9.182;2023-08-06T02:38:12;14.10;99.90
18147;DHT22;9199;48.832;9.182;2023-08-06T02:40:43;14.00;99.90
18147;DHT22;9199;48.832;9.182;2023-08-06T02:43:10;14.00;99.90
18147;DHT22;9199;48.832;9.182;2023-08-06T02:45:38;14.00;99.90
18147;DHT22;9199;48.832;9.182;2023-08-06T02:48:05;14.00;99.90
18147;DHT22;9199;48.832;9.182;2023-08-06T02:50:37;14.00;99.90
18147;DHT22;9199;48.832;9.182;2023-08-06T02:53:05;14.00;99.90
18147;DHT22;9199;48.832;9.182;2023-08-06T02:55:32;14.00;99.90
18147;DHT22;9199;48.832;9.182;2023-08-06T02:58:00;14.00;99.90
18147;DHT22;9199;48.832;9.182;2023-08-06T03:00:27;14.00;99.90
18147;DHT22;9199;48.832;9.182;2023-08-06T03:02:55;14.00;99.90
18147;DHT22;9199;48.832;9.182;2023-08-06T03:05:22;14.00;99.90
18147;DHT22;9199;48.832;9.182;2023-08-06T03:07:48;14.00;99.90
18147;DHT22;9199;48.832;9.182;2023-08-06T03:10:15;14.00;99.90
18147;DHT22;9199;48.832;9.182;2023-08-06T03:12:42;14.00;99.90
18147;DHT22;9199;48.832;9.182;2023-08-06T03:15:09;14.10;99.90
18147;DHT22;9199;48.832;9.182;2023-08-06T03:17:36;14.10;99.90
18147;DHT22;9199;48.832;9.182;2023-08-06T03:20:06;14.20;99.90
18147;DHT22;9199;48.832;9.182;2023-08-06T03:22:32;14.20;99.90
18147;DHT22;9199;48.832;9.182;2023-08-06T03:24:59;14.20;99.90
18147;DHT22;9199;48.832;9.182;2023-08-06T03:27:26;14.30;99.90
18147;DHT22;9199;48.832;9.182;2023-08-06T03:29:52;14.30;99.90
18147;DHT22;9199;48.832;9.182;2023-08-06T03:32:19;14.30;99.90
18147;DHT22;9199;48.832;9.182;2023-08-06T03:34:46;14.30;99.90
18147;DHT22;9199;48.832;9.182;2023-08-06T03:37:14;14.30;99.90
18147;DHT22;9199;48.832;9.182;2023-08-06T03:39:40;14.30;99.90
18147;DHT22;9199;48.832;9.182;2023-08-06T03:42:07;14.30;99.90
18147;DHT22;9199;48.832;9.182;2023-08-06T03:44:34;14.30;99.90
18147;DHT22;9199;48.832;9.182;2023-08-06T03:47:00;14.30;99.90
18147;DHT22;9199;48.832;9.182;2023-08-06T03:49:27;14.30;99.90
18147;DHT22;9199;48.832;9.182;2023-08-06T03:51:54;14.30;99.90
18147;DHT22;9199;48.832;9.182;2023-08-06T03:54:22;14.30;99.90
18147;DHT22;9199;48.832;9.182;2023-08-06T03:56:49;14.20;99.90
18147;DHT22;9199;48.832;9.182;2023-08-06T03:59:15;14.20;99.90
18147;DHT22;9199;48.832;9.182;2023-08-06T04:01:42;14.20;99.90
18147;DHT22;9199;48.832;9.182;2023-08-06T04:04:09;14.20;99.90
18147;DHT22;9199;48.832;9.182;2023-08-06T04:06:36;14.30;99.90
18147;DHT22;9199;48.832;9.182;2023-08-06T04:09:02;14.30;99.90
18147;DHT22;9199;48.832;9.182;2023-08-06T04:11:30;14.30;99.90
18147;DHT22;9199;48.832;9.182;2023-08-06T04:13:57;14.20;99.90
18147;DHT22;9199;48.832;9.182;2023-08-06T04:16:24;14.20;99.90
18147;DHT22;9199;48.832;9.182;2023-08-06T04:18:51;14.10;99.90
18147;DHT22;9199;48.832;9.182;2023-08-06T04:21:19;14.00;99.90
18147;DHT22;9199;48.832;9.182;2023-08-06T04:23:45;14.00;99.90
18147;DHT22;9199;48.832;9.182;2023-08-06T04:26:12;14.00;99.90
18147;DHT22;9199;48.832;9.182;2023-08-06T04:28:40;14.00;99.90
18147;DHT22;9199;48.832;9.182;2023-08-06T04:31:07;13.90;99.90
18147;DHT22;9199;48.832;9.182;2023-08-06T04:33:34;13.90;99.90
18147;DHT22;9199;48.832;9.182;2023-08-06T04:36:00;13.90;99.90
18147;DHT22;9199;48.832;9.182;2023-08-06T04:38:27;14.00;99.90
18147;DHT22;9199;48.832;9.182;2023-08-06T04:40:54;14.00;99.90
18147;DHT22;9199;48.832;9.182;2023-08-06T04:43:20;13.90;99.90
18147;DHT22;9199;48.832;9.182;2023-08-06T04:45:49;14.00;99.90
18147;DHT22;9199;48.832;9.182;2023-08-06T04:48:16;14.10;99.90
18147;DHT22;9199;48.832;9.182;2023-08-06T04:50:44;14.10;99.90
18147;DHT22;9199;48.832;9.182;2023-08-06T04:53:11;14.10;99.90
18147;DHT22;9199;48.832;9.182;2023-08-06T04:55:38;14.20;99.90
18147;DHT22;9199;48.832;9.182;2023-08-06T04:58:04;14.10;99.90
18147;DHT22;9199;48.832;9.182;2023-08-06T05:00:32;14.10;99.90
18147;DHT22;9199;48.832;9.182;2023-08-06T05:03:01;14.10;99.90
18147;DHT22;9199;48.832;9.182;2023-08-06T05:05:27;14.10;99.90
18147;DHT22;9199;48.832;9.182;2023-08-06T05:07:55;14.20;99.90
18147;DHT22;9199;48.832;9.182;2023-08-06T05:10:24;14.40;99.90
18147;DHT22;9199;48.832;9.182;2023-08-06T05:12:50;14.50;99.90
18147;DHT22;9199;48.832;9.182;2023-08-06T05:15:17;14.80;99.90
18147;DHT22;9199;48.832;9.182;2023-08-06T05:17:44;14.90;99.90
18147;DHT22;9199;48.832;9.182;2023-08-06T05:20:12;15.00;99.90
18147;DHT22;9199;48.832;9.182;2023-08-06T05:22:39;15.20;99.90
18147;DHT22;9199;48.832;9.182;2023-08-06T05:25:06;15.30;99.90
18147;DHT22;9199;48.832;9.182;2023-08-06T05:27:33;15.30;99.90
18147;DHT22;9199;48.832;9.182;2023-08-06T05:30:00;15.30;99.90
18147;DHT22;9199;48.832;9.182;2023-08-06T05:32:27;15.40;99.90
18147;DHT22;9199;48.832;9.182;2023-08-06T05:34:53;15.50;99.90
18147;DHT22;9199;48.832;9.182;2023-08-06T05:37:21;15.70;99.90
18147;DHT22;9199;48.832;9.182;2023-08-06T05:39:48;15.80;99.90
18147;DHT22;9199;48.832;9.182;2023-08-06T05:42:15;15.90;99.90
18147;DHT22;9199;48.832;9.182;2023-08-06T05:44:42;15.80;99.90
18147;DHT22;9199;48.832;9.182;2023-08-06T05:47:08;15.90;99.90
18147;DHT22;9199;48.832;9.182;2023-08-06T05:49:35;16.00;99.90
18147;DHT22;9199;48.832;9.182;2023-08-06T05:52:02;16.00;99.90
18147;DHT22;9199;48.832;9.182;2023-08-06T05:54:32;16.00;99.90
18147;DHT22;9199;48.832;9.182;2023-08-06T05:56:59;15.90;99.90
18147;DHT22;9199;48.832;9.182;2023-08-06T05:59:26;15.70;99.90
18147;DHT22;9199;48.832;9.182;2023-08-06T06:01:52;15.70;99.90
18147;DHT22;9199;48.832;9.182;2023-08-06T06:04:20;15.70;99.90
18147;DHT22;9199;48.832;9.182;2023-08-06T06:06:47;15.60;99.90
18147;DHT22;9199;48.832;9.182;2023-08-06T06:09:13;15.60;99.90
18147;DHT22;9199;48.832;9.182;2023-08-06T06:11:41;15.50;99.90
18147;DHT22;9199;48.832;9.182;2023-08-06T06:14:08;15.50;99.90
18147;DHT22;9199;48.832;9.182;2023-08-06T06:16:35;15.40;99.90
18147;DHT22;9199;48.832;9.182;2023-08-06T06:19:01;15.40;99.90
18147;DHT22;9199;48.832;9.182;2023-08-06T06:21:28;15.30;99.90
18147;DHT22;9199;48.832;9.182;2023-08-06T06:23:55;15.20;99.90
18147;DHT22;9199;48.832;9.182;2023-08-06T06:26:22;15.00;99.90
18147;DHT22;9199;48.832;9.182;2023-08-06T06:28:50;14.90;99.90
18147;DHT22;9199;48.832;9.182;2023-08-06T06:31:16;14.70;99.90
18147;DHT22;9199;48.832;9.182;2023-08-06T06:33:43;14.60;99.90
18147;DHT22;9199;48.832;9.182;2023-08-06T06:36:10;14.70;99.90
18147;DHT22;9199;48.832;9.182;2023-08-06T06:38:37;14.70;99.90
18147;DHT22;9199;48.832;9.182;2023-08-06T06:41:04;14.60;99.90
18147;DHT22;9199;48.832;9.182;2023-08-06T06:43:30;14.60;99.90
18147;DHT22;9199;48.832;9.182;2023-08-06T06:45:59;14.60;99.90
18147;DHT22;9199;48.832;9.182;2023-08-06T06:48:27;14.70;99.90
18147;DHT22;9199;48.832;9.182;2023-08-06T06:50:54;14.80;99.90
18147;DHT22;9199;48.832;9.182;2023-08-06T06:53:21;14.90;99.90
18147;DHT22;9199;48.832;9.182;2023-08-06T06:55:52;14.90;99.90
18147;DHT22;9199;48.832;9.182;2023-08-06T06:58:19;15.00;99.90
18147;DHT22;9199;48.832;9.182;2023-08-06T07:00:46;14.90;99.90
18147;DHT22;9199;48.832;9.182;2023-08-06T07:03:14;15.00;99.90
18147;DHT22;9199;48.832;9.182;2023-08-06T07:05:42;15.00;99.90
18147;DHT22;9199;48.832;9.182;2023-08-06T07:08:09;15.00;99.90
18147;DHT22;9199;48.832;9.182;2023-08-06T07:10:36;15.10;99.90
18147;DHT22;9199;48.832;9.182;2023-08-06T07:13:03;15.20;99.90
18147;DHT22;9199;48.832;9.182;2023-08-06T07:15:29;15.20;99.90
18147;DHT22;9199;48.832;9.182;2023-08-06T07:17:56;15.20;99.90
18147;DHT22;9199;48.832;9.182;2023-08-06T07:20:24;15.20;99.90
18147;DHT22;9199;48.832;9.182;2023-08-06T07:22:51;15.20;99.90
18147;DHT22;9199;48.832;9.182;2023-08-06T07:25:17;15.20;99.90
18147;DHT22;9199;48.832;9.182;2023-08-06T07:27:44;15.20;99.90
18147;DHT22;9199;48.832;9.182;2023-08-06T07:30:11;15.30;99.90
18147;DHT22;9199;48.832;9.182;2023-08-06T07:32:38;15.20;99.90
18147;DHT22;9199;48.832;9.182;2023-08-06T07:35:05;15.10;99.90
18147;DHT22;9199;48.832;9.182;2023-08-06T07:37:34;15.10;99.90
18147;DHT22;9199;48.832;9.182;2023-08-06T07:40:01;15.10;99.90
18147;DHT22;9199;48.832;9.182;2023-08-06T07:42:29;15.00;99.90
18147;DHT22;9199;48.832;9.182;2023-08-06T07:44:57;15.10;99.90
18147;DHT22;9199;48.832;9.182;2023-08-06T07:47:24;15.10;99.90
18147;DHT22;9199;48.832;9.182;2023-08-06T07:49:51;15.10;99.90
18147;DHT22;9199;48.832;9.182;2023-08-06T07:52:18;15.20;99.90
18147;DHT22;9199;48.832;9.182;2023-08-06T07:54:46;15.30;99.90
18147;DHT22;9199;48.832;9.182;2023-08-06T07:57:13;15.40;99.90
18147;DHT22;9199;48.832;9.182;2023-08-06T07:59:40;15.30;99.90
18147;DHT22;9199;48.832;9.182;2023-08-06T08:02:07;15.40;99.90
18147;DHT22;9199;48.832;9.182;2023-08-06T08:04:34;15.40;99.90
18147;DHT22;9199;48.832;9.182;2023-08-06T08:07:00;15.60;99.90
18147;DHT22;9199;48.832;9.182;2023-08-06T08:09:27;15.80;99.90
18147;DHT22;9199;48.832;9.182;2023-08-06T08:11:56;16.00;99.90
18147;DHT22;9199;48.832;9.182;2023-08-06T08:14:23;16.20;99.90
18147;DHT22;9199;48.832;9.182;2023-08-06T08:16:49;16.40;99.90
18147;DHT22;9199;48.832;9.182;2023-08-06T08:19:16;16.60;99.90
18147;DHT22;9199;48.832;9.182;2023-08-06T08:21:43;16.80;99.90
18147;DHT22;9199;48.832;9.182;2023-08-06T08:24:10;17.20;99.90
18147;DHT22;9199;48.832;9.182;2023-08-06T08:26:36;17.40;99.90
18147;DHT22;9199;48.832;9.182;2023-08-06T08:29:04;17.50;99.90
18147;DHT22;9199;48.832;9.182;2023-08-06T08:31:31;17.70;99.90
18147;DHT22;9199;48.832;9.182;2023-08-06T08:34:04;17.80;99.90
18147;DHT22;9199;48.832;9.182;2023-08-06T08:36:31;17.80;99.90
18147;DHT22;9199;48.832;9.182;2023-08-06T08:38:57;17.80;99.90
18147;DHT22;9199;48.832;9.182;2023-08-06T08:41:24;17.60;99.90
18147;DHT22;9199;48.832;9.182;2023-08-06T08:43:51;17.50;99.90
18147;DHT22;9199;48.832;9.182;2023-08-06T08:46:20;17.60;99.90
18147;DHT22;9199;48.832;9.182;2023-08-06T08:48:46;17.50;99.90
18147;DHT22;9199;48.832;9.182;2023-08-06T08:51:15;17.40;99.90
18147;DHT22;9199;48.832;9.182;2023-08-06T08:53:44;17.50;99.90
18147;DHT22;9199;48.832;9.182;2023-08-06T08:56:13;17.70;99.90
18147;DHT22;9199;48.832;9.182;2023-08-06T08:58:40;17.50;99.90
18147;DHT22;9199;48.832;9.182;2023-08-06T09:01:07;17.10;99.90
18147;DHT22;9199;48.832;9.182;2023-08-06T09:03:36;16.90;99.90
18147;DHT22;9199;48.832;9.182;2023-08-06T09:06:04;16.80;99.90
18147;DHT22;9199;48.832;9.182;2023-08-06T09:08:38;16.70;99.90
18147;DHT22;9199;48.832;9.182;2023-08-06T09:11:09;16.60;99.90
18147;DHT22;9199;48.832;9.182;2023-08-06T09:13:37;16.50;99.90
18147;DHT22;9199;48.832;9.182;2023-08-06T09:16:03;16.50;99.90
18147;DHT22;9199;48.832;9.182;2023-08-06T09:18:31;16.50;99.90
18147;DHT22;9199;48.832;9.182;2023-08-06T09:20:59;16.50;99.90
18147;DHT22;9199;48.832;9.182;2023-08-06T09:23:28;16.60;99.90
18147;DHT22;9199;48.832;9.182;2023-08-06T09:25:56;16.80;99.90
18147;DHT22;9199;48.832;9.182;2023-08-06T09:28:23;17.10;99.90
18147;DHT22;9199;48.832;9.182;2023-08-06T09:30:50;17.30;99.90
18147;DHT22;9199;48.832;9.182;2023-08-06T09:33:22;17.40;99.90
18147;DHT22;9199;48.832;9.182;2023-08-06T09:35:49;17.40;99.90
18147;DHT22;9199;48.832;9.182;2023-08-06T09:38:17;17.30;99.90
18147;DHT22;9199;48.832;9.182;2023-08-06T09:40:44;17.00;99.90
18147;DHT22;9199;48.832;9.182;2023-08-06T09:43:11;16.90;99.90
18147;DHT22;9199;48.832;9.182;2023-08-06T09:45:39;16.70;99.90
18147;DHT22;9199;48.832;9.182;2023-08-06T09:48:07;16.70;99.90
18147;DHT22;9199;48.832;9.182;2023-08-06T09:50:36;16.70;99.90
18147;DHT22;9199;48.832;9.182;2023-08-06T09:53:04;16.60;99.90
18147;DHT22;9199;48.832;9.182;2023-08-06T09:55:32;16.60;99.90
18147;DHT22;9199;48.832;9.182;2023-08-06T09:58:01;16.60;99.90
18147;DHT22;9199;48.832;9.182;2023-08-06T10:00:28;16.60;99.90
18147;DHT22;9199;48.832;9.182;2023-08-06T10:03:00;16.60;99.90
18147;DHT22;9199;48.832;9.182;2023-08-06T10:05:27;16.60;99.90
18147;DHT22;9199;48.832;9.182;2023-08-06T10:07:55;16.50;99.90
18147;DHT22;9199;48.832;9.182;2023-08-06T10:10:24;16.50;99.90
18147;DHT22;9199;48.832;9.182;2023-08-06T10:12:55;16.60;99.90
18147;DHT22;9199;48.832;9.182;2023-08-06T10:15:26;16.60;99.90
18147;DHT22;9199;48.832;9.182;2023-08-06T10:17:56;16.80;99.90
18147;DHT22;9199;48.832;9.182;2023-08-06T10:20:24;17.10;99.90
18147;DHT22;9199;48.832;9.182;2023-08-06T10:23:01;17.40;99.90
18147;DHT22;9199;48.832;9.182;2023-08-06T10:25:31;17.60;99.90
18147;DHT22;9199;48.832;9.182;2023-08-06T10:28:00;17.60;99.90
18147;DHT22;9199;48.832;9.182;2023-08-06T10:30:28;17.40;99.90
18147;DHT22;9199;48.832;9.182;2023-08-06T10:32:56;17.60;99.90
18147;DHT22;9199;48.832;9.182;2023-08-06T10:35:35;18.10;99.90
18147;DHT22;9199;48.832;9.182;2023-08-06T10:38:04;18.30;99.90
18147;DHT22;9199;48.832;9.182;2023-08-06T10:40:31;18.30;99.90
18147;DHT22;9199;48.832;9.182;2023-08-06T10:43:00;18.30;99.90
18147;DHT22;9199;48.832;9.182;2023-08-06T10:45:27;18.40;99.90
18147;DHT22;9199;48.832;9.182;2023-08-06T10:47:56;18.30;99.90
18147;DHT22;9199;48.832;9.182;2023-08-06T10:50:23;18.40;99.90
18147;DHT22;9199;48.832;9.182;2023-08-06T10:52:50;18.40;99.90
18147;DHT22;9199;48.832;9.182;2023-08-06T10:55:28;18.30;99.90
18147;DHT22;9199;48.832;9.182;2023-08-06T10:57:55;18.00;99.90
18147;DHT22;9199;48.832;9.182;2023-08-06T11:00:24;17.70;99.90
18147;DHT22;9199;48.832;9.182;2023-08-06T11:02:51;17.50;99.90
18147;DHT22;9199;48.832;9.182;2023-08-06T11:05:19;17.30;99.90
18147;DHT22;9199;48.832;9.182;2023-08-06T11:07:46;16.70;99.90
18147;DHT22;9199;48.832;9.182;2023-08-06T11:10:13;16.40;99.90
18147;DHT22;9199;48.832;9.182;2023-08-06T11:12:40;16.20;99.90
18147;DHT22;9199;48.832;9.182;2023-08-06T11:15:08;16.10;99.90
18147;DHT22;9199;48.832;9.182;2023-08-06T11:17:37;16.10;99.90
18147;DHT22;9199;48.832;9.182;2023-08-06T11:20:06;16.20;99.90
18147;DHT22;9199;48.832;9.182;2023-08-06T11:22:33;16.50;99.90
18147;DHT22;9199;48.832;9.182;2023-08-06T11:25:00;16.50;99.90
18147;DHT22;9199;48.832;9.182;2023-08-06T11:27:27;16.40;99.90
18147;DHT22;9199;48.832;9.182;2023-08-06T11:29:54;16.40;99.90
18147;DHT22;9199;48.832;9.182;2023-08-06T11:32:21;16.40;99.90
18147;DHT22;9199;48.832;9.182;2023-08-06T11:34:49;16.50;99.90
18147;DHT22;9199;48.832;9.182;2023-08-06T11:37:16;16.30;99.90
18147;DHT22;9199;48.832;9.182;2023-08-06T11:39:47;16.30;99.90
18147;DHT22;9199;48.832;9.182;2023-08-06T11:42:14;16.40;99.90
18147;DHT22;9199;48.832;9.182;2023-08-06T11:44:41;16.50;99.90
18147;DHT22;9199;48.832;9.182;2023-08-06T11:47:13;16.50;99.90
18147;DHT22;9199;48.832;9.182;2023-08-06T11:49:41;16.40;99.90
18147;DHT22;9199;48.832;9.182;2023-08-06T11:52:18;16.40;99.90
18147;DHT22;9199;48.832;9.182;2023-08-06T11:54:47;16.20;99.90
18147;DHT22;9199;48.832;9.182;2023-08-06T11:57:15;16.00;99.90
18147;DHT22;9199;48.832;9.182;2023-08-06T11:59:42;15.80;99.90
18147;DHT22;9199;48.832;9.182;2023-08-06T12:02:09;15.70;99.90
18147;DHT22;9199;48.832;9.182;2023-08-06T12:04:58;15.50;99.90
18147;DHT22;9199;48.832;9.182;2023-08-06T12:07:29;15.50;99.90
18147;DHT22;9199;48.832;9.182;2023-08-06T12:09:56;15.40;99.90
18147;DHT22;9199;48.832;9.182;2023-08-06T12:12:23;15.20;99.90
18147;DHT22;9199;48.832;9.182;2023-08-06T12:14:49;15.00;99.90
18147;DHT22;9199;48.832;9.182;2023-08-06T12:17:16;15.00;99.90
18147;DHT22;9199;48.832;9.182;2023-08-06T12:19:44;14.90;99.90
18147;DHT22;9199;48.832;9.182;2023-08-06T12:22:11;14.90;99.90
18147;DHT22;9199;48.832;9.182;2023-08-06T12:24:40;14.90;99.90
18147;DHT22;9199;48.832;9.182;2023-08-06T12:27:07;15.00;99.90
18147;DHT22;9199;48.832;9.182;2023-08-06T12:29:34;15.10;99.90
18147;DHT22;9199;48.832;9.182;2023-08-06T12:32:01;15.20;99.90
18147;DHT22;9199;48.832;9.182;2023-08-06T12:34:27;15.30;99.90
18147;DHT22;9199;48.832;9.182;2023-08-06T12:36:54;15.50;99.90
18147;DHT22;9199;48.832;9.182;2023-08-06T12:39:21;15.70;99.90
18147;DHT22;9199;48.832;9.182;2023-08-06T12:41:49;15.90;99.90
18147;DHT22;9199;48.832;9.182;2023-08-06T12:44:16;16.00;99.90
18147;DHT22;9199;48.832;9.182;2023-08-06T12:46:42;16.40;99.90
18147;DHT22;9199;48.832;9.182;2023-08-06T12:49:09;16.80;99.90
18147;DHT22;9199;48.832;9.182;2023-08-06T12:51:36;17.20;99.90
18147;DHT22;9199;48.832;9.182;2023-08-06T12:54:04;17.60;99.90
18147;DHT22;9199;48.832;9.182;2023-08-06T12:56:30;17.60;99.90
18147;DHT22;9199;48.832;9.182;2023-08-06T12:58:58;17.60;99.90
18147;DHT22;9199;48.832;9.182;2023-08-06T13:01:25;17.60;99.90
18147;DHT22;9199;48.832;9.182;2023-08-06T13:03:52;17.40;99.90
18147;DHT22;9199;48.832;9.182;2023-08-06T13:06:19;17.20;99.90
18147;DHT22;9199;48.832;9.182;2023-08-06T13:08:45;17.30;99.90
18147;DHT22;9199;48.832;9.182;2023-08-06T13:11:12;17.40;99.90
18147;DHT22;9199;48.832;9.182;2023-08-06T13:13:39;17.50;99.90
18147;DHT22;9199;48.832;9.182;2023-08-06T13:16:07;17.80;99.90
18147;DHT22;9199;48.832;9.182;2023-08-06T13:18:34;18.10;99.90
18147;DHT22;9199;48.832;9.182;2023-08-06T13:21:01;18.10;99.90
18147;DHT22;9199;48.832;9.182;2023-08-06T13:23:28;18.00;99.90
18147;DHT22;9199;48.832;9.182;2023-08-06T13:25:54;17.70;99.90
18147;DHT22;9199;48.832;9.182;2023-08-06T13:28:21;17.70;99.90
18147;DHT22;9199;48.832;9.182;2023-08-06T13:30:48;17.50;99.90
18147;DHT22;9199;48.832;9.182;2023-08-06T13:33:16;17.70;99.90
18147;DHT22;9199;48.832;9.182;2023-08-06T13:35:42;18.10;99.90
18147;DHT22;9199;48.832;9.182;2023-08-06T13:38:09;18.20;99.90
18147;DHT22;9199;48.832;9.182;2023-08-06T13:40:36;18.30;99.90
18147;DHT22;9199;48.832;9.182;2023-08-06T13:43:03;18.30;99.90
18147;DHT22;9199;48.832;9.182;2023-08-06T13:45:29;18.20;99.90
18147;DHT22;9199;48.832;9.182;2023-08-06T13:47:57;18.30;99.90
18147;DHT22;9199;48.832;9.182;2023-08-06T13:50:25;18.30;99.90
18147;DHT22;9199;48.832;9.182;2023-08-06T13:52:53;18.10;99.90
18147;DHT22;9199;48.832;9.182;2023-08-06T13:55:21;18.10;99.90
18147;DHT22;9199;48.832;9.182;2023-08-06T13:57:48;18.10;99.90
18147;DHT22;9199;48.832;9.182;2023-08-06T14:00:14;17.90;99.90
18147;DHT22;9199;48.832;9.182;2023-08-06T14:02:41;17.60;99.90
18147;DHT22;9199;48.832;9.182;2023-08-06T14:05:09;17.60;99.90
18147;DHT22;9199;48.832;9.182;2023-08-06T14:07:37;17.50;99.90
18147;DHT22;9199;48.832;9.182;2023-08-06T14:10:05;17.50;99.90
18147;DHT22;9199;48.832;9.182;2023-08-06T14:12:32;17.30;99.90
18147;DHT22;9199;48.832;9.182;2023-08-06T14:14:59;16.80;99.90
18147;DHT22;9199;48.832;9.182;2023-08-06T14:17:27;16.50;99.90
18147;DHT22;9199;48.832;9.182;2023-08-06T14:19:54;16.30;99.90
18147;DHT22;9199;48.832;9.182;2023-08-06T14:22:21;16.30;99.90
18147;DHT22;9199;48.832;9.182;2023-08-06T14:24:49;16.30;99.90
18147;DHT22;9199;48.832;9.182;2023-08-06T14:27:16;16.50;99.90
18147;DHT22;9199;48.832;9.182;2023-08-06T14:29:42;16.80;99.90
18147;DHT22;9199;48.832;9.182;2023-08-06T14:32:09;17.10;99.90
18147;DHT22;9199;48.832;9.182;2023-08-06T14:34:36;17.40;99.90
18147;DHT22;9199;48.832;9.182;2023-08-06T14:37:03;17.70;99.90
18147;DHT22;9199;48.832;9.182;2023-08-06T14:39:29;17.80;99.90
18147;DHT22;9199;48.832;9.182;2023-08-06T14:41:57;17.80;99.90
18147;DHT22;9199;48.832;9.182;2023-08-06T14:44:24;17.70;99.90
18147;DHT22;9199;48.832;9.182;2023-08-06T14:46:51;17.70;99.90
18147;DHT22;9199;48.832;9.182;2023-08-06T14:49:18;17.60;99.90
18147;DHT22;9199;48.832;9.182;2023-08-06T14:51:45;17.50;99.90
18147;DHT22;9199;48.832;9.182;2023-08-06T14:54:11;17.30;99.90
18147;DHT22;9199;48.832;9.182;2023-08-06T14:56:38;17.10;99.90
18147;DHT22;9199;48.832;9.182;2023-08-06T14:59:06;17.00;99.90
18147;DHT22;9199;48.832;9.182;2023-08-06T15:01:33;17.10;99.90
18147;DHT22;9199;48.832;9.182;2023-08-06T15:03:59;17.20;99.90
18147;DHT22;9199;48.832;9.182;2023-08-06T15:06:26;17.10;99.90
18147;DHT22;9199;48.832;9.182;2023-08-06T15:08:53;16.90;99.90
18147;DHT22;9199;48.832;9.182;2023-08-06T15:11:23;16.90;99.90
18147;DHT22;9199;48.832;9.182;2023-08-06T15:13:50;16.90;99.90
18147;DHT22;9199;48.832;9.182;2023-08-06T15:16:18;17.10;99.90
18147;DHT22;9199;48.832;9.182;2023-08-06T15:18:45;17.10;99.90
18147;DHT22;9199;48.832;9.182;2023-08-06T15:21:11;16.90;99.90
18147;DHT22;9199;48.832;9.182;2023-08-06T15:23:38;16.80;99.90
18147;DHT22;9199;48.832;9.182;2023-08-06T15:26:05;16.90;99.90
18147;DHT22;9199;48.832;9.182;2023-08-06T15:28:31;16.90;99.90
18147;DHT22;9199;48.832;9.182;2023-08-06T15:30:58;17.10;99.90
18147;DHT22;9199;48.832;9.182;2023-08-06T15:33:26;17.20;99.90
18147;DHT22;9199;48.832;9.182;2023-08-06T15:35:53;17.30;99.90
18147;DHT22;9199;48.832;9.182;2023-08-06T15:38:20;17.10;99.90
18147;DHT22;9199;48.832;9.182;2023-08-06T15:40:46;17.00;99.90
18147;DHT22;9199;48.832;9.182;2023-08-06T15:43:13;16.90;99.90
18147;DHT22;9199;48.832;9.182;2023-08-06T15:45:40;16.90;99.90